sensor_id;sensor_type;location;lat;lon;timestamp;P1;durP1;ratioP1;P2;durP2;ratioP2
739;SDS011;354;42.694;23.336;2022-12-29T00:01:30;22.50;;;19.37;;
739;SDS011;354;42.694;23.336;2022-12-29T00:03:56;24.90;;;18.53;;
739;SDS011;354;42.694;23.336;2022-12-29T00:06:22;25.90;;;20.87;;
739;SDS011;354;42.694;23.336;2022-12-29T00:08:47;27.67;;;21.80;;
739;SDS011;354;42.694;23.336;2022-12-29T00:11:23;24.57;;;20.10;;
739;SDS011;354;42.694;23.336;2022-12-29T00:13:50;30.57;;;21.30;;
739;SDS011;354;42.694;23.336;2022-12-29T00:16:35;27.03;;;21.70;;
739;SDS011;354;42.694;23.336;2022-12-29T00:19:01;26.43;;;21.80;;
739;SDS011;354;42.694;23.336;2022-12-29T00:21:28;36.13;;;25.57;;
739;SDS011;354;42.694;23.336;2022-12-29T00:24:14;32.83;;;24.37;;
739;SDS011;354;42.694;23.336;2022-12-29T00:26:48;31.23;;;24.07;;
739;SDS011;354;42.694;23.336;2022-12-29T00:29:37;34.37;;;26.80;;
739;SDS011;354;42.694;23.336;2022-12-29T00:32:21;33.97;;;25.30;;
739;SDS011;354;42.694;23.336;2022-12-29T00:35:07;34.20;;;24.67;;
739;SDS011;354;42.694;23.336;2022-12-29T00:37:35;36.93;;;27.73;;
739;SDS011;354;42.694;23.336;2022-12-29T00:40:23;34.33;;;25.27;;
739;SDS011;354;42.694;23.336;2022-12-29T00:43:07;30.07;;;23.90;;
739;SDS011;354;42.694;23.336;2022-12-29T00:45:51;30.47;;;24.20;;
739;SDS011;354;42.694;23.336;2022-12-29T00:48:16;30.13;;;23.03;;
739;SDS011;354;42.694;23.336;2022-12-29T00:51:01;30.20;;;23.63;;
739;SDS011;354;42.694;23.336;2022-12-29T00:53:27;31.87;;;25.17;;
739;SDS011;354;42.694;23.336;2022-12-29T00:55:52;34.77;;;24.10;;
739;SDS011;354;42.694;23.336;2022-12-29T00:58:18;32.57;;;24.10;;
739;SDS011;354;42.694;23.336;2022-12-29T01:00:43;29.20;;;23.10;;
739;SDS011;354;42.694;23.336;2022-12-29T01:03:08;31.53;;;23.30;;
739;SDS011;354;42.694;23.336;2022-12-29T01:05:37;28.83;;;23.17;;
739;SDS011;354;42.694;23.336;2022-12-29T01:08:02;30.80;;;22.70;;
739;SDS011;354;42.694;23.336;2022-12-29T01:10:28;28.63;;;23.03;;
739;SDS011;354;42.694;23.336;2022-12-29T01:12:53;28.00;;;21.87;;
739;SDS011;354;42.694;23.336;2022-12-29T01:15:19;28.83;;;21.40;;
739;SDS011;354;42.694;23.336;2022-12-29T01:17:45;29.63;;;20.73;;
739;SDS011;354;42.694;23.336;2022-12-29T01:20:10;26.20;;;21.27;;
739;SDS011;354;42.694;23.336;2022-12-29T01:22:36;24.60;;;21.27;;
739;SDS011;354;42.694;23.336;2022-12-29T01:25:02;24.73;;;20.60;;
739;SDS011;354;42.694;23.336;2022-12-29T01:27:27;24.13;;;20.50;;
739;SDS011;354;42.694;23.336;2022-12-29T01:29:53;23.73;;;19.73;;
739;SDS011;354;42.694;23.336;2022-12-29T01:32:18;23.77;;;19.63;;
739;SDS011;354;42.694;23.336;2022-12-29T01:34:44;24.33;;;18.87;;
739;SDS011;354;42.694;23.336;2022-12-29T01:37:09;22.37;;;18.07;;
739;SDS011;354;42.694;23.336;2022-12-29T01:39:34;24.33;;;17.70;;
739;SDS011;354;42.694;23.336;2022-12-29T01:42:00;22.30;;;18.33;;
739;SDS011;354;42.694;23.336;2022-12-29T01:47:17;24.50;;;19.27;;
739;SDS011;354;42.694;23.336;2022-12-29T01:49:47;24.70;;;20.13;;
739;SDS011;354;42.694;23.336;2022-12-29T01:52:13;22.33;;;19.50;;
739;SDS011;354;42.694;23.336;2022-12-29T01:54:40;23.40;;;19.23;;
739;SDS011;354;42.694;23.336;2022-12-29T01:57:12;24.27;;;19.17;;
739;SDS011;354;42.694;23.336;2022-12-29T01:59:49;24.40;;;20.33;;
739;SDS011;354;42.694;23.336;2022-12-29T02:02:23;23.23;;;20.20;;
739;SDS011;354;42.694;23.336;2022-12-29T02:04:49;25.97;;;19.70;;
739;SDS011;354;42.694;23.336;2022-12-29T02:07:18;24.60;;;21.10;;
739;SDS011;354;42.694;23.336;2022-12-29T02:09:46;22.33;;;18.60;;
739;SDS011;354;42.694;23.336;2022-12-29T02:12:14;23.87;;;19.50;;
739;SDS011;354;42.694;23.336;2022-12-29T02:14:39;22.70;;;19.27;;
739;SDS011;354;42.694;23.336;2022-12-29T02:17:20;24.10;;;19.73;;
739;SDS011;354;42.694;23.336;2022-12-29T02:33:58;24.57;;;18.13;;
739;SDS011;354;42.694;23.336;2022-12-29T02:36:35;22.97;;;18.43;;
739;SDS011;354;42.694;23.336;2022-12-29T02:41:42;21.50;;;19.00;;
739;SDS011;354;42.694;23.336;2022-12-29T02:44:13;21.17;;;17.17;;
739;SDS011;354;42.694;23.336;2022-12-29T02:47:09;20.60;;;17.13;;
739;SDS011;354;42.694;23.336;2022-12-29T02:52:46;22.40;;;18.17;;
739;SDS011;354;42.694;23.336;2022-12-29T02:55:15;23.40;;;19.27;;
739;SDS011;354;42.694;23.336;2022-12-29T02:57:41;21.63;;;18.23;;
739;SDS011;354;42.694;23.336;2022-12-29T03:00:08;21.87;;;19.30;;
739;SDS011;354;42.694;23.336;2022-12-29T03:08:13;23.37;;;17.80;;
739;SDS011;354;42.694;23.336;2022-12-29T03:11:13;23.37;;;19.63;;
739;SDS011;354;42.694;23.336;2022-12-29T03:14:08;24.30;;;19.37;;
739;SDS011;354;42.694;23.336;2022-12-29T03:16:57;21.23;;;18.83;;
739;SDS011;354;42.694;23.336;2022-12-29T03:19:35;23.03;;;19.53;;
739;SDS011;354;42.694;23.336;2022-12-29T03:22:08;23.60;;;18.47;;
739;SDS011;354;42.694;23.336;2022-12-29T03:24:53;25.13;;;19.53;;
739;SDS011;354;42.694;23.336;2022-12-29T03:27:27;23.47;;;19.23;;
739;SDS011;354;42.694;23.336;2022-12-29T03:30:02;23.73;;;20.20;;
739;SDS011;354;42.694;23.336;2022-12-29T03:32:35;25.47;;;19.90;;
739;SDS011;354;42.694;23.336;2022-12-29T03:35:04;24.97;;;20.00;;
739;SDS011;354;42.694;23.336;2022-12-29T03:37:32;24.93;;;19.63;;
739;SDS011;354;42.694;23.336;2022-12-29T03:40:03;26.57;;;21.23;;
739;SDS011;354;42.694;23.336;2022-12-29T03:42:30;28.70;;;21.47;;
739;SDS011;354;42.694;23.336;2022-12-29T03:44:58;25.20;;;20.27;;
739;SDS011;354;42.694;23.336;2022-12-29T03:47:24;26.70;;;21.00;;
739;SDS011;354;42.694;23.336;2022-12-29T03:49:51;26.00;;;20.90;;
739;SDS011;354;42.694;23.336;2022-12-29T03:52:16;28.33;;;22.77;;
739;SDS011;354;42.694;23.336;2022-12-29T03:54:42;27.60;;;23.10;;
739;SDS011;354;42.694;23.336;2022-12-29T03:57:08;27.83;;;23.00;;
739;SDS011;354;42.694;23.336;2022-12-29T03:59:35;30.77;;;23.50;;
739;SDS011;354;42.694;23.336;2022-12-29T04:02:00;28.73;;;25.60;;
739;SDS011;354;42.694;23.336;2022-12-29T04:04:25;28.43;;;24.40;;
739;SDS011;354;42.694;23.336;2022-12-29T04:06:51;34.30;;;26.13;;
739;SDS011;354;42.694;23.336;2022-12-29T04:09:16;29.07;;;23.70;;
739;SDS011;354;42.694;23.336;2022-12-29T04:11:42;33.43;;;26.30;;
739;SDS011;354;42.694;23.336;2022-12-29T04:14:07;33.07;;;25.43;;
739;SDS011;354;42.694;23.336;2022-12-29T04:16:32;32.53;;;23.87;;
739;SDS011;354;42.694;23.336;2022-12-29T04:19:00;34.40;;;24.93;;
739;SDS011;354;42.694;23.336;2022-12-29T04:21:26;34.07;;;25.30;;
739;SDS011;354;42.694;23.336;2022-12-29T04:23:52;34.43;;;24.83;;
739;SDS011;354;42.694;23.336;2022-12-29T04:26:17;31.83;;;22.77;;
739;SDS011;354;42.694;23.336;2022-12-29T04:28:42;35.97;;;26.03;;
739;SDS011;354;42.694;23.336;2022-12-29T04:31:08;32.47;;;25.83;;
739;SDS011;354;42.694;23.336;2022-12-29T04:33:34;34.63;;;26.87;;
739;SDS011;354;42.694;23.336;2022-12-29T04:35:59;33.27;;;25.10;;
739;SDS011;354;42.694;23.336;2022-12-29T04:38:24;35.27;;;25.70;;
739;SDS011;354;42.694;23.336;2022-12-29T04:40:50;33.00;;;26.30;;
739;SDS011;354;42.694;23.336;2022-12-29T04:43:16;31.60;;;24.73;;
739;SDS011;354;42.694;23.336;2022-12-29T04:45:44;35.10;;;26.77;;
739;SDS011;354;42.694;23.336;2022-12-29T04:48:11;39.87;;;29.77;;
739;SDS011;354;42.694;23.336;2022-12-29T04:50:37;33.50;;;27.43;;
739;SDS011;354;42.694;23.336;2022-12-29T04:53:03;39.87;;;27.60;;
739;SDS011;354;42.694;23.336;2022-12-29T04:55:29;33.93;;;26.97;;
739;SDS011;354;42.694;23.336;2022-12-29T04:57:54;35.87;;;26.97;;
739;SDS011;354;42.694;23.336;2022-12-29T05:00:20;33.97;;;27.37;;
739;SDS011;354;42.694;23.336;2022-12-29T05:02:45;33.40;;;25.67;;
739;SDS011;354;42.694;23.336;2022-12-29T05:05:11;32.10;;;26.63;;
739;SDS011;354;42.694;23.336;2022-12-29T05:07:36;30.47;;;23.77;;
739;SDS011;354;42.694;23.336;2022-12-29T05:10:02;32.37;;;25.73;;
739;SDS011;354;42.694;23.336;2022-12-29T05:12:32;31.67;;;25.90;;
739;SDS011;354;42.694;23.336;2022-12-29T05:14:57;31.57;;;25.40;;
739;SDS011;354;42.694;23.336;2022-12-29T05:20:45;29.27;;;23.10;;
739;SDS011;354;42.694;23.336;2022-12-29T05:23:11;26.70;;;23.53;;
739;SDS011;354;42.694;23.336;2022-12-29T05:25:36;42.83;;;33.93;;
739;SDS011;354;42.694;23.336;2022-12-29T05:28:02;30.80;;;24.10;;
739;SDS011;354;42.694;23.336;2022-12-29T05:30:27;25.63;;;22.33;;
739;SDS011;354;42.694;23.336;2022-12-29T05:32:53;23.07;;;19.93;;
739;SDS011;354;42.694;23.336;2022-12-29T05:35:18;22.77;;;20.33;;
739;SDS011;354;42.694;23.336;2022-12-29T05:37:43;25.63;;;22.67;;
739;SDS011;354;42.694;23.336;2022-12-29T05:40:09;26.30;;;21.70;;
739;SDS011;354;42.694;23.336;2022-12-29T05:42:35;25.90;;;21.00;;
739;SDS011;354;42.694;23.336;2022-12-29T05:45:00;27.43;;;21.63;;
739;SDS011;354;42.694;23.336;2022-12-29T05:47:25;33.60;;;27.20;;
739;SDS011;354;42.694;23.336;2022-12-29T05:49:51;23.97;;;21.13;;
739;SDS011;354;42.694;23.336;2022-12-29T05:55:10;24.43;;;20.77;;
739;SDS011;354;42.694;23.336;2022-12-29T05:57:36;24.80;;;20.90;;
739;SDS011;354;42.694;23.336;2022-12-29T06:00:03;28.83;;;25.90;;
739;SDS011;354;42.694;23.336;2022-12-29T06:02:29;25.53;;;22.83;;
739;SDS011;354;42.694;23.336;2022-12-29T06:04:55;23.27;;;20.50;;
739;SDS011;354;42.694;23.336;2022-12-29T06:07:20;23.93;;;19.93;;
739;SDS011;354;42.694;23.336;2022-12-29T06:09:45;29.30;;;21.57;;
739;SDS011;354;42.694;23.336;2022-12-29T06:12:11;23.73;;;20.50;;
739;SDS011;354;42.694;23.336;2022-12-29T06:14:36;24.07;;;21.13;;
739;SDS011;354;42.694;23.336;2022-12-29T06:17:01;25.27;;;22.70;;
739;SDS011;354;42.694;23.336;2022-12-29T06:19:27;25.47;;;21.33;;
739;SDS011;354;42.694;23.336;2022-12-29T06:21:52;25.03;;;22.33;;
739;SDS011;354;42.694;23.336;2022-12-29T06:24:18;26.73;;;22.10;;
739;SDS011;354;42.694;23.336;2022-12-29T06:26:44;27.00;;;22.27;;
739;SDS011;354;42.694;23.336;2022-12-29T06:29:09;28.67;;;20.57;;
739;SDS011;354;42.694;23.336;2022-12-29T06:31:35;24.97;;;20.83;;
739;SDS011;354;42.694;23.336;2022-12-29T06:34:00;26.07;;;20.10;;
739;SDS011;354;42.694;23.336;2022-12-29T06:36:26;25.27;;;20.27;;
739;SDS011;354;42.694;23.336;2022-12-29T06:38:51;25.77;;;21.80;;
739;SDS011;354;42.694;23.336;2022-12-29T06:41:17;24.20;;;21.67;;
739;SDS011;354;42.694;23.336;2022-12-29T06:43:44;26.87;;;22.00;;
739;SDS011;354;42.694;23.336;2022-12-29T06:46:09;30.03;;;20.60;;
739;SDS011;354;42.694;23.336;2022-12-29T06:48:34;26.13;;;21.13;;
739;SDS011;354;42.694;23.336;2022-12-29T06:51:00;30.43;;;21.80;;
739;SDS011;354;42.694;23.336;2022-12-29T06:53:25;28.10;;;22.47;;
739;SDS011;354;42.694;23.336;2022-12-29T06:55:51;29.33;;;22.10;;
739;SDS011;354;42.694;23.336;2022-12-29T06:58:17;27.67;;;22.70;;
739;SDS011;354;42.694;23.336;2022-12-29T07:00:42;26.27;;;21.37;;
739;SDS011;354;42.694;23.336;2022-12-29T07:03:07;30.93;;;22.83;;
739;SDS011;354;42.694;23.336;2022-12-29T07:05:33;34.93;;;27.00;;
739;SDS011;354;42.694;23.336;2022-12-29T07:07:58;34.67;;;26.67;;
739;SDS011;354;42.694;23.336;2022-12-29T07:10:25;35.23;;;25.23;;
739;SDS011;354;42.694;23.336;2022-12-29T07:12:51;36.33;;;27.30;;
739;SDS011;354;42.694;23.336;2022-12-29T07:15:16;32.73;;;24.67;;
739;SDS011;354;42.694;23.336;2022-12-29T07:17:42;35.03;;;26.60;;
739;SDS011;354;42.694;23.336;2022-12-29T07:20:07;32.67;;;25.30;;
739;SDS011;354;42.694;23.336;2022-12-29T07:22:33;32.93;;;25.63;;
739;SDS011;354;42.694;23.336;2022-12-29T07:24:59;30.03;;;24.83;;
739;SDS011;354;42.694;23.336;2022-12-29T07:27:24;30.43;;;24.93;;
739;SDS011;354;42.694;23.336;2022-12-29T07:29:49;31.13;;;24.70;;
739;SDS011;354;42.694;23.336;2022-12-29T07:32:15;30.70;;;24.00;;
739;SDS011;354;42.694;23.336;2022-12-29T07:34:40;33.57;;;25.77;;
739;SDS011;354;42.694;23.336;2022-12-29T07:37:06;30.13;;;23.73;;
739;SDS011;354;42.694;23.336;2022-12-29T07:39:31;30.13;;;24.70;;
739;SDS011;354;42.694;23.336;2022-12-29T07:41:57;32.03;;;24.20;;
739;SDS011;354;42.694;23.336;2022-12-29T07:44:22;34.33;;;24.10;;
739;SDS011;354;42.694;23.336;2022-12-29T07:46:47;34.10;;;27.67;;
739;SDS011;354;42.694;23.336;2022-12-29T07:49:13;32.43;;;25.73;;
739;SDS011;354;42.694;23.336;2022-12-29T07:51:38;31.90;;;26.17;;
739;SDS011;354;42.694;23.336;2022-12-29T07:54:03;35.07;;;26.30;;
739;SDS011;354;42.694;23.336;2022-12-29T07:56:29;31.13;;;24.93;;
739;SDS011;354;42.694;23.336;2022-12-29T07:58:54;29.83;;;23.87;;
739;SDS011;354;42.694;23.336;2022-12-29T08:01:20;31.63;;;25.00;;
739;SDS011;354;42.694;23.336;2022-12-29T08:03:48;32.07;;;25.27;;
739;SDS011;354;42.694;23.336;2022-12-29T08:06:14;29.20;;;23.97;;
739;SDS011;354;42.694;23.336;2022-12-29T08:08:39;28.13;;;21.50;;
739;SDS011;354;42.694;23.336;2022-12-29T08:11:05;29.97;;;23.80;;
739;SDS011;354;42.694;23.336;2022-12-29T08:13:30;25.43;;;22.03;;
739;SDS011;354;42.694;23.336;2022-12-29T08:15:57;28.73;;;22.47;;
739;SDS011;354;42.694;23.336;2022-12-29T08:18:23;32.57;;;24.10;;
739;SDS011;354;42.694;23.336;2022-12-29T08:20:49;28.93;;;23.97;;
739;SDS011;354;42.694;23.336;2022-12-29T08:23:15;28.60;;;23.17;;
739;SDS011;354;42.694;23.336;2022-12-29T08:25:40;30.07;;;24.07;;
739;SDS011;354;42.694;23.336;2022-12-29T08:28:05;26.30;;;22.53;;
739;SDS011;354;42.694;23.336;2022-12-29T08:30:31;30.63;;;23.77;;
739;SDS011;354;42.694;23.336;2022-12-29T08:32:56;24.97;;;21.90;;
739;SDS011;354;42.694;23.336;2022-12-29T08:35:21;26.37;;;22.57;;
739;SDS011;354;42.694;23.336;2022-12-29T08:37:47;30.93;;;22.10;;
739;SDS011;354;42.694;23.336;2022-12-29T08:40:12;24.83;;;20.73;;
739;SDS011;354;42.694;23.336;2022-12-29T08:42:38;28.67;;;23.03;;
739;SDS011;354;42.694;23.336;2022-12-29T08:45:04;27.33;;;22.30;;
739;SDS011;354;42.694;23.336;2022-12-29T08:47:30;29.50;;;21.63;;
739;SDS011;354;42.694;23.336;2022-12-29T08:49:55;27.00;;;21.50;;
739;SDS011;354;42.694;23.336;2022-12-29T08:52:21;27.53;;;21.80;;
739;SDS011;354;42.694;23.336;2022-12-29T08:54:46;32.13;;;23.67;;
739;SDS011;354;42.694;23.336;2022-12-29T08:57:11;28.20;;;21.23;;
739;SDS011;354;42.694;23.336;2022-12-29T08:59:37;26.47;;;21.40;;
739;SDS011;354;42.694;23.336;2022-12-29T09:02:02;30.40;;;21.97;;
739;SDS011;354;42.694;23.336;2022-12-29T09:04:28;24.67;;;20.90;;
739;SDS011;354;42.694;23.336;2022-12-29T09:06:53;26.43;;;21.77;;
739;SDS011;354;42.694;23.336;2022-12-29T09:09:19;27.20;;;21.10;;
739;SDS011;354;42.694;23.336;2022-12-29T09:11:45;25.47;;;20.73;;
739;SDS011;354;42.694;23.336;2022-12-29T09:14:11;28.40;;;23.37;;
739;SDS011;354;42.694;23.336;2022-12-29T09:16:36;25.10;;;22.37;;
739;SDS011;354;42.694;23.336;2022-12-29T09:19:02;28.67;;;22.63;;
739;SDS011;354;42.694;23.336;2022-12-29T09:21:28;26.83;;;21.97;;
739;SDS011;354;42.694;23.336;2022-12-29T09:23:53;27.03;;;22.67;;
739;SDS011;354;42.694;23.336;2022-12-29T09:26:19;25.17;;;20.23;;
739;SDS011;354;42.694;23.336;2022-12-29T09:28:44;26.37;;;21.90;;
739;SDS011;354;42.694;23.336;2022-12-29T09:31:10;29.70;;;24.57;;
739;SDS011;354;42.694;23.336;2022-12-29T09:33:36;27.80;;;23.13;;
739;SDS011;354;42.694;23.336;2022-12-29T09:36:01;26.23;;;22.30;;
739;SDS011;354;42.694;23.336;2022-12-29T09:38:27;28.43;;;23.90;;
739;SDS011;354;42.694;23.336;2022-12-29T09:40:54;24.37;;;20.37;;
739;SDS011;354;42.694;23.336;2022-12-29T09:43:29;32.60;;;23.67;;
739;SDS011;354;42.694;23.336;2022-12-29T09:46:23;26.87;;;23.00;;
739;SDS011;354;42.694;23.336;2022-12-29T09:49:16;31.77;;;23.80;;
739;SDS011;354;42.694;23.336;2022-12-29T09:51:59;27.73;;;21.93;;
739;SDS011;354;42.694;23.336;2022-12-29T09:57:55;25.33;;;20.93;;
739;SDS011;354;42.694;23.336;2022-12-29T10:00:09;24.93;;;22.33;;
739;SDS011;354;42.694;23.336;2022-12-29T10:10:58;31.07;;;22.57;;
739;SDS011;354;42.694;23.336;2022-12-29T10:13:43;28.27;;;21.97;;
739;SDS011;354;42.694;23.336;2022-12-29T10:21:44;26.53;;;21.30;;
739;SDS011;354;42.694;23.336;2022-12-29T10:24:21;29.57;;;22.83;;
739;SDS011;354;42.694;23.336;2022-12-29T10:26:47;34.00;;;25.40;;
739;SDS011;354;42.694;23.336;2022-12-29T10:29:17;39.97;;;27.57;;
739;SDS011;354;42.694;23.336;2022-12-29T10:31:50;27.83;;;20.70;;
739;SDS011;354;42.694;23.336;2022-12-29T10:34:27;28.33;;;21.63;;
739;SDS011;354;42.694;23.336;2022-12-29T10:37:08;27.00;;;22.53;;
739;SDS011;354;42.694;23.336;2022-12-29T10:39:41;27.80;;;24.57;;
739;SDS011;354;42.694;23.336;2022-12-29T10:42:15;28.90;;;22.20;;
739;SDS011;354;42.694;23.336;2022-12-29T10:44:43;27.60;;;21.43;;
739;SDS011;354;42.694;23.336;2022-12-29T10:47:14;29.17;;;22.03;;
739;SDS011;354;42.694;23.336;2022-12-29T10:49:42;28.73;;;22.50;;
739;SDS011;354;42.694;23.336;2022-12-29T10:52:11;31.67;;;25.37;;
739;SDS011;354;42.694;23.336;2022-12-29T10:55:02;29.33;;;22.97;;
739;SDS011;354;42.694;23.336;2022-12-29T11:00:12;28.73;;;21.80;;
739;SDS011;354;42.694;23.336;2022-12-29T11:06:01;26.80;;;21.83;;
739;SDS011;354;42.694;23.336;2022-12-29T11:08:13;28.43;;;21.57;;
739;SDS011;354;42.694;23.336;2022-12-29T11:10:42;29.60;;;21.50;;
739;SDS011;354;42.694;23.336;2022-12-29T11:13:13;32.30;;;25.90;;
739;SDS011;354;42.694;23.336;2022-12-29T11:15:42;27.20;;;22.17;;
739;SDS011;354;42.694;23.336;2022-12-29T11:18:22;31.53;;;26.43;;
739;SDS011;354;42.694;23.336;2022-12-29T11:23:55;30.63;;;23.17;;
739;SDS011;354;42.694;23.336;2022-12-29T11:26:23;26.73;;;21.40;;
739;SDS011;354;42.694;23.336;2022-12-29T11:32:04;26.03;;;21.40;;
739;SDS011;354;42.694;23.336;2022-12-29T11:34:35;30.17;;;21.63;;
739;SDS011;354;42.694;23.336;2022-12-29T11:37:10;25.77;;;21.47;;
739;SDS011;354;42.694;23.336;2022-12-29T11:42:22;26.70;;;19.37;;
739;SDS011;354;42.694;23.336;2022-12-29T11:44:55;26.00;;;20.80;;
739;SDS011;354;42.694;23.336;2022-12-29T11:47:22;23.77;;;18.03;;
739;SDS011;354;42.694;23.336;2022-12-29T11:49:54;25.90;;;20.20;;
739;SDS011;354;42.694;23.336;2022-12-29T11:52:23;24.23;;;19.83;;
739;SDS011;354;42.694;23.336;2022-12-29T11:54:51;25.57;;;19.57;;
739;SDS011;354;42.694;23.336;2022-12-29T11:57:18;24.87;;;19.47;;
739;SDS011;354;42.694;23.336;2022-12-29T11:59:52;24.10;;;19.43;;
739;SDS011;354;42.694;23.336;2022-12-29T12:02:26;25.07;;;21.00;;
739;SDS011;354;42.694;23.336;2022-12-29T12:06:03;26.20;;;20.70;;
739;SDS011;354;42.694;23.336;2022-12-29T12:08:41;28.50;;;21.53;;
739;SDS011;354;42.694;23.336;2022-12-29T12:11:16;28.80;;;21.80;;
739;SDS011;354;42.694;23.336;2022-12-29T12:14:00;29.77;;;21.37;;
739;SDS011;354;42.694;23.336;2022-12-29T12:16:32;28.93;;;21.27;;
739;SDS011;354;42.694;23.336;2022-12-29T12:19:25;28.20;;;22.43;;
739;SDS011;354;42.694;23.336;2022-12-29T12:24:52;26.23;;;22.43;;
739;SDS011;354;42.694;23.336;2022-12-29T12:27:30;26.87;;;22.17;;
739;SDS011;354;42.694;23.336;2022-12-29T12:30:14;26.33;;;21.20;;
739;SDS011;354;42.694;23.336;2022-12-29T12:32:46;24.87;;;21.60;;
739;SDS011;354;42.694;23.336;2022-12-29T12:35:23;25.33;;;20.73;;
739;SDS011;354;42.694;23.336;2022-12-29T12:40:40;29.27;;;24.60;;
739;SDS011;354;42.694;23.336;2022-12-29T12:49:02;26.60;;;22.20;;
739;SDS011;354;42.694;23.336;2022-12-29T12:51:47;26.03;;;22.07;;
739;SDS011;354;42.694;23.336;2022-12-29T12:57:44;25.20;;;22.30;;
739;SDS011;354;42.694;23.336;2022-12-29T13:00:25;26.70;;;21.23;;
739;SDS011;354;42.694;23.336;2022-12-29T13:03:18;24.00;;;20.33;;
739;SDS011;354;42.694;23.336;2022-12-29T13:05:57;27.20;;;21.03;;
739;SDS011;354;42.694;23.336;2022-12-29T13:14:11;24.77;;;21.33;;
739;SDS011;354;42.694;23.336;2022-12-29T13:27:14;25.10;;;21.13;;
739;SDS011;354;42.694;23.336;2022-12-29T13:32:44;27.30;;;21.47;;
739;SDS011;354;42.694;23.336;2022-12-29T13:38:00;27.27;;;21.07;;
739;SDS011;354;42.694;23.336;2022-12-29T13:40:28;30.37;;;23.83;;
739;SDS011;354;42.694;23.336;2022-12-29T13:42:59;26.80;;;20.63;;
739;SDS011;354;42.694;23.336;2022-12-29T13:45:28;24.90;;;20.23;;
739;SDS011;354;42.694;23.336;2022-12-29T13:50:25;32.77;;;22.47;;
739;SDS011;354;42.694;23.336;2022-12-29T13:58:08;26.30;;;23.03;;
739;SDS011;354;42.694;23.336;2022-12-29T14:08:52;24.23;;;20.73;;
739;SDS011;354;42.694;23.336;2022-12-29T14:11:32;28.83;;;22.07;;
739;SDS011;354;42.694;23.336;2022-12-29T14:16:46;27.80;;;21.53;;
739;SDS011;354;42.694;23.336;2022-12-29T14:21:40;32.33;;;22.10;;
739;SDS011;354;42.694;23.336;2022-12-29T14:34:45;31.97;;;25.10;;
739;SDS011;354;42.694;23.336;2022-12-29T14:37:44;33.07;;;27.00;;
739;SDS011;354;42.694;23.336;2022-12-29T14:42:50;30.20;;;25.20;;
739;SDS011;354;42.694;23.336;2022-12-29T14:47:44;37.10;;;26.17;;
739;SDS011;354;42.694;23.336;2022-12-29T14:53:10;33.10;;;27.23;;
739;SDS011;354;42.694;23.336;2022-12-29T14:55:47;32.77;;;25.13;;
739;SDS011;354;42.694;23.336;2022-12-29T14:58:20;46.93;;;34.20;;
739;SDS011;354;42.694;23.336;2022-12-29T15:00:50;38.70;;;28.53;;
739;SDS011;354;42.694;23.336;2022-12-29T15:05:54;38.27;;;30.00;;
739;SDS011;354;42.694;23.336;2022-12-29T15:08:24;37.03;;;28.90;;
739;SDS011;354;42.694;23.336;2022-12-29T15:13:40;38.30;;;28.43;;
739;SDS011;354;42.694;23.336;2022-12-29T15:18:54;41.20;;;30.70;;
739;SDS011;354;42.694;23.336;2022-12-29T15:21:23;41.17;;;29.53;;
739;SDS011;354;42.694;23.336;2022-12-29T15:23:50;60.50;;;42.87;;
739;SDS011;354;42.694;23.336;2022-12-29T15:26:17;43.30;;;32.03;;
739;SDS011;354;42.694;23.336;2022-12-29T15:28:48;44.60;;;31.70;;
739;SDS011;354;42.694;23.336;2022-12-29T15:31:19;42.50;;;30.13;;
739;SDS011;354;42.694;23.336;2022-12-29T15:33:54;35.93;;;28.80;;
739;SDS011;354;42.694;23.336;2022-12-29T15:36:38;35.33;;;28.53;;
739;SDS011;354;42.694;23.336;2022-12-29T15:39:23;39.73;;;28.80;;
739;SDS011;354;42.694;23.336;2022-12-29T15:41:55;40.70;;;30.07;;
739;SDS011;354;42.694;23.336;2022-12-29T15:44:26;38.83;;;28.50;;
739;SDS011;354;42.694;23.336;2022-12-29T15:46:56;41.13;;;29.30;;
739;SDS011;354;42.694;23.336;2022-12-29T15:49:23;41.97;;;29.17;;
739;SDS011;354;42.694;23.336;2022-12-29T15:51:49;41.10;;;31.60;;
739;SDS011;354;42.694;23.336;2022-12-29T15:54:18;48.70;;;34.67;;
739;SDS011;354;42.694;23.336;2022-12-29T15:56:46;44.03;;;31.53;;
739;SDS011;354;42.694;23.336;2022-12-29T15:59:27;40.10;;;30.70;;
739;SDS011;354;42.694;23.336;2022-12-29T16:02:01;44.07;;;32.17;;
739;SDS011;354;42.694;23.336;2022-12-29T16:04:29;45.03;;;31.83;;
739;SDS011;354;42.694;23.336;2022-12-29T16:09:36;42.97;;;33.20;;
739;SDS011;354;42.694;23.336;2022-12-29T16:12:17;45.00;;;31.57;;
739;SDS011;354;42.694;23.336;2022-12-29T16:14:47;40.73;;;30.30;;
739;SDS011;354;42.694;23.336;2022-12-29T16:17:19;42.90;;;32.13;;
739;SDS011;354;42.694;23.336;2022-12-29T16:19:49;42.60;;;33.17;;
739;SDS011;354;42.694;23.336;2022-12-29T16:22:24;46.50;;;32.80;;
739;SDS011;354;42.694;23.336;2022-12-29T16:24:59;48.00;;;34.13;;
739;SDS011;354;42.694;23.336;2022-12-29T16:27:40;47.70;;;38.63;;
739;SDS011;354;42.694;23.336;2022-12-29T16:30:16;49.40;;;33.73;;
739;SDS011;354;42.694;23.336;2022-12-29T16:32:53;55.00;;;35.40;;
739;SDS011;354;42.694;23.336;2022-12-29T16:35:24;47.43;;;36.43;;
739;SDS011;354;42.694;23.336;2022-12-29T16:38:14;47.47;;;34.77;;
739;SDS011;354;42.694;23.336;2022-12-29T16:40:50;61.70;;;45.80;;
739;SDS011;354;42.694;23.336;2022-12-29T16:43:21;61.37;;;42.37;;
739;SDS011;354;42.694;23.336;2022-12-29T16:51:18;115.37;;;77.10;;
739;SDS011;354;42.694;23.336;2022-12-29T16:53:54;112.57;;;77.33;;
739;SDS011;354;42.694;23.336;2022-12-29T16:56:23;114.80;;;70.57;;
739;SDS011;354;42.694;23.336;2022-12-29T16:59:00;116.97;;;77.27;;
739;SDS011;354;42.694;23.336;2022-12-29T17:01:27;83.10;;;55.87;;
739;SDS011;354;42.694;23.336;2022-12-29T17:03:54;103.33;;;65.30;;
739;SDS011;354;42.694;23.336;2022-12-29T17:06:25;96.53;;;69.77;;
739;SDS011;354;42.694;23.336;2022-12-29T17:08:51;109.13;;;73.27;;
739;SDS011;354;42.694;23.336;2022-12-29T17:14:11;91.93;;;61.67;;
739;SDS011;354;42.694;23.336;2022-12-29T17:16:50;97.23;;;62.60;;
739;SDS011;354;42.694;23.336;2022-12-29T17:19:20;85.20;;;57.33;;
739;SDS011;354;42.694;23.336;2022-12-29T17:21:54;87.43;;;62.50;;
739;SDS011;354;42.694;23.336;2022-12-29T17:24:19;87.57;;;61.23;;
739;SDS011;354;42.694;23.336;2022-12-29T17:26:45;94.33;;;66.20;;
739;SDS011;354;42.694;23.336;2022-12-29T17:29:36;93.67;;;62.83;;
739;SDS011;354;42.694;23.336;2022-12-29T17:32:04;193.50;;;124.57;;
739;SDS011;354;42.694;23.336;2022-12-29T17:34:34;101.77;;;67.40;;
739;SDS011;354;42.694;23.336;2022-12-29T17:37:00;105.23;;;70.70;;
739;SDS011;354;42.694;23.336;2022-12-29T17:39:25;104.47;;;68.80;;
739;SDS011;354;42.694;23.336;2022-12-29T17:41:50;103.13;;;60.23;;
739;SDS011;354;42.694;23.336;2022-12-29T17:44:16;94.40;;;61.47;;
739;SDS011;354;42.694;23.336;2022-12-29T17:46:44;104.07;;;68.67;;
739;SDS011;354;42.694;23.336;2022-12-29T17:49:13;102.37;;;68.67;;
739;SDS011;354;42.694;23.336;2022-12-29T17:51:41;98.50;;;65.57;;
739;SDS011;354;42.694;23.336;2022-12-29T17:54:12;104.37;;;66.17;;
739;SDS011;354;42.694;23.336;2022-12-29T17:56:43;107.23;;;71.77;;
739;SDS011;354;42.694;23.336;2022-12-29T17:59:10;113.43;;;75.60;;